createdAt,value
2023-02-26T00:00:25.667Z,588.93
2023-02-26T00:05:25.625Z,597.28
2023-02-26T00:10:25.566Z,592.03
2023-02-26T00:15:25.468Z,594.64
2023-02-26T00:20:25.445Z,602.61
2023-02-26T00:25:25.377Z,602.08
2023-02-26T00:30:25.330Z,605.32
2023-02-26T00:35:25.243Z,613.02
2023-02-26T00:40:25.174Z,619.22
2023-02-26T00:45:25.098Z,627.86
2023-02-26T00:50:25.091Z,623.80
2023-02-26T00:55:24.979Z,630.80
2023-02-26T01:00:24.921Z,627.28
2023-02-26T01:05:43.654Z,631.39
2023-02-26T01:10:36.086Z,627.86
2023-02-26T01:15:36.155Z,633.17
2023-02-26T01:20:35.929Z,628.45
2023-02-26T01:25:35.890Z,629.03
2023-02-26T01:30:35.810Z,636.16
2023-02-26T01:35:35.736Z,631.39
2023-02-26T01:40:35.671Z,639.17
2023-02-26T01:45:35.619Z,637.96
2023-02-26T01:50:35.562Z,639.17
2023-02-26T01:55:35.507Z,630.80
2023-02-26T02:00:35.467Z,630.21
2023-02-26T02:05:35.394Z,634.36
2023-02-26T02:10:35.418Z,637.36
2023-02-26T02:15:35.249Z,625.53
2023-02-26T02:20:35.152Z,625.53
2023-02-26T02:25:35.116Z,623.80
2023-02-26T02:30:35.026Z,629.03
2023-02-26T02:35:34.984Z,627.28
2023-02-26T02:40:34.907Z,623.22
2023-02-26T02:45:34.864Z,619.22
2023-02-26T02:50:34.776Z,616.39
2023-02-26T02:55:34.764Z,616.39
2023-02-26T03:00:34.656Z,619.78
2023-02-26T03:05:34.607Z,621.50
2023-02-26T03:10:34.549Z,626.11
2023-02-26T03:15:34.463Z,620.93
2023-02-26T03:20:34.385Z,617.51
2023-02-26T03:25:34.341Z,615.82
2023-02-26T03:30:34.292Z,619.78
2023-02-26T03:35:34.246Z,611.91
2023-02-26T03:40:34.162Z,618.08
2023-02-26T03:45:34.083Z,624.95
2023-02-26T03:50:34.023Z,624.38
2023-02-26T03:55:33.964Z,629.62
2023-02-26T04:00:54.865Z,635.56
2023-02-26T04:05:33.826Z,630.80
2023-02-26T04:10:33.772Z,633.17
2023-02-26T04:15:33.766Z,638.57
2023-02-26T04:20:33.691Z,647.15
2023-02-26T04:25:33.593Z,643.44
2023-02-26T04:30:33.542Z,641.60
2023-02-26T04:35:33.421Z,654.05
2023-02-26T04:40:33.391Z,654.05
2023-02-26T04:45:33.316Z,652.78
2023-02-26T04:50:33.276Z,654.05
2023-02-26T04:55:33.217Z,653.42
2023-02-26T05:00:33.145Z,657.24
2023-02-26T05:05:33.064Z,649.01
2023-02-26T05:10:33.037Z,652.15
2023-02-26T05:15:32.939Z,654.05
2023-02-26T05:20:32.904Z,656.60
2023-02-26T05:25:32.829Z,657.88
2023-02-26T05:30:32.835Z,657.24
2023-02-26T05:35:32.671Z,655.32
2023-02-26T05:40:32.644Z,654.05
2023-02-26T05:45:32.553Z,657.24
2023-02-26T05:50:32.518Z,654.68
2023-02-26T05:55:32.442Z,654.05
2023-02-26T06:00:32.397Z,658.52
2023-02-26T06:05:32.308Z,661.10
2023-02-26T06:10:32.254Z,661.75
2023-02-26T06:15:32.187Z,661.10
2023-02-26T06:20:32.129Z,653.42
2023-02-26T06:25:32.066Z,654.05
2023-02-26T06:30:32.098Z,650.27
2023-02-26T06:35:31.927Z,645.29
2023-02-26T06:40:31.893Z,644.05
2023-02-26T06:45:31.924Z,647.77
2023-02-26T06:50:31.756Z,654.68
2023-02-26T06:55:31.679Z,663.05
2023-02-26T07:00:46.044Z,672.31
2023-02-26T07:05:38.419Z,677.03
2023-02-26T07:10:38.334Z,676.35
2023-02-26T07:15:38.334Z,673.65
2023-02-26T07:20:38.208Z,672.31
2023-02-26T07:25:38.155Z,674.33
2023-02-26T07:30:38.140Z,668.97
2023-02-26T07:35:38.012Z,652.15
2023-02-26T07:40:37.943Z,639.78
2023-02-26T07:45:37.897Z,626.11
2023-02-26T07:50:37.830Z,619.22
2023-02-26T07:55:37.761Z,603.15
2023-02-26T08:00:37.661Z,588.93
2023-02-26T08:05:37.943Z,579.82
2023-02-26T08:10:37.551Z,571.95
2023-02-26T08:15:37.551Z,564.29
2023-02-26T08:20:37.423Z,551.82
2023-02-26T08:25:37.339Z,541.19
2023-02-26T08:30:37.307Z,532.22
2023-02-26T08:35:37.219Z,513.58
2023-02-26T08:40:37.148Z,501.73
2023-02-26T08:45:37.112Z,493.29
2023-02-26T08:50:37.013Z,480.29
2023-02-26T08:55:36.957Z,470.90
2023-02-26T09:00:36.899Z,463.14
2023-02-26T09:05:36.796Z,454.09
2023-02-26T09:10:36.826Z,443.05
2023-02-26T09:15:36.705Z,418.58
2023-02-26T09:20:36.612Z,401.62
2023-02-26T09:25:36.658Z,386.88
2023-02-26T09:30:36.497Z,390.23
2023-02-26T09:35:36.460Z,396.66
2023-02-26T09:40:36.371Z,407.69
2023-02-26T09:45:36.320Z,425.44
2023-02-26T09:50:36.210Z,419.88
2023-02-26T09:55:36.198Z,418.06
2023-02-26T10:00:36.120Z,412.68
2023-02-26T10:05:36.054Z,402.34
2023-02-26T10:10:35.957Z,405.73
2023-02-26T10:15:35.938Z,406.71
2023-02-26T10:20:35.822Z,415.48
2023-02-26T10:25:35.805Z,423.84
2023-02-26T10:30:35.749Z,437.59
2023-02-26T10:35:35.646Z,453.79
2023-02-26T10:40:35.604Z,474.54
2023-02-26T10:45:37.374Z,491.13
2023-02-26T10:50:37.293Z,504.36
2023-02-26T10:55:37.942Z,513.58
2023-02-26T11:00:35.336Z,525.99
2023-02-26T11:05:35.246Z,547.34
2023-02-26T11:10:36.141Z,557.75
2023-02-26T11:15:35.231Z,567.14
2023-02-26T11:20:35.054Z,573.41
2023-02-26T11:25:36.078Z,573.89
2023-02-26T11:30:34.918Z,563.82
2023-02-26T11:35:34.869Z,560.07
2023-02-26T11:40:34.783Z,567.14
2023-02-26T11:45:34.748Z,578.82
2023-02-26T11:50:34.779Z,581.82
2023-02-26T11:55:34.622Z,586.37
2023-02-26T12:00:34.528Z,593.60
2023-02-26T12:05:34.496Z,599.40
2023-02-26T12:10:34.368Z,602.08
2023-02-26T12:15:34.352Z,606.41
2023-02-26T12:20:35.232Z,607.50
2023-02-26T12:25:34.339Z,604.23
2023-02-26T12:30:34.218Z,608.60
2023-02-26T12:35:34.070Z,611.91
2023-02-26T12:40:34.005Z,613.58
2023-02-26T12:45:33.975Z,617.51
2023-02-26T12:50:33.900Z,616.95
2023-02-26T12:55:33.821Z,622.07
2023-02-26T13:00:33.753Z,627.28
2023-02-26T13:05:33.694Z,623.80
2023-02-26T13:10:33.622Z,619.22
2023-02-26T13:15:33.618Z,618.65
2023-02-26T13:20:33.475Z,615.82
2023-02-26T13:25:33.431Z,622.65
2023-02-26T13:30:33.396Z,621.50
2023-02-26T13:35:33.327Z,622.07
2023-02-26T13:40:33.227Z,623.22
2023-02-26T13:45:33.147Z,622.65
2023-02-26T13:50:33.073Z,623.22
2023-02-26T13:55:33.032Z,622.65
2023-02-26T14:00:32.943Z,618.08
2023-02-26T14:05:32.898Z,616.95
2023-02-26T14:10:32.819Z,619.22
2023-02-26T14:15:32.769Z,602.08
2023-02-26T14:20:32.711Z,589.96
2023-02-26T14:25:32.617Z,580.81
2023-02-26T14:30:32.615Z,579.82
2023-02-26T14:35:32.512Z,574.87
2023-02-26T14:40:32.413Z,570.01
2023-02-26T14:45:32.397Z,577.83
2023-02-26T14:50:32.269Z,587.39
2023-02-26T14:55:32.260Z,591.51
2023-02-26T15:00:32.147Z,594.12
2023-02-26T15:05:32.121Z,599.93
2023-02-26T15:10:32.010Z,602.61
2023-02-26T15:15:31.993Z,611.91
2023-02-26T15:20:31.904Z,608.60
2023-02-26T15:25:31.864Z,611.35
2023-02-26T15:30:31.753Z,619.22
2023-02-26T15:35:31.713Z,623.22
2023-02-26T15:40:31.624Z,624.38
2023-02-26T15:45:31.587Z,614.70
2023-02-26T15:50:31.512Z,622.65
2023-02-26T15:55:31.453Z,620.35
2023-02-26T16:00:31.380Z,625.53
2023-02-26T16:05:31.312Z,631.39
2023-02-26T16:10:31.275Z,637.96
2023-02-26T16:15:31.193Z,638.57
2023-02-26T16:20:31.138Z,650.27
2023-02-26T16:25:31.063Z,650.27
2023-02-26T16:30:30.978Z,648.39
2023-02-26T16:35:30.933Z,645.29
2023-02-26T16:40:30.840Z,645.91
2023-02-26T16:45:30.795Z,650.27
2023-02-26T16:50:30.758Z,646.53
2023-02-26T16:55:30.974Z,644.05
2023-02-26T17:00:30.616Z,648.39
2023-02-26T17:05:30.589Z,642.21
2023-02-26T17:10:30.523Z,639.17
2023-02-26T17:15:30.427Z,635.56
2023-02-26T17:20:30.337Z,634.96
2023-02-26T17:25:30.937Z,634.96
2023-02-26T17:30:30.268Z,640.99
2023-02-26T17:35:30.199Z,634.36
2023-02-26T17:40:30.154Z,631.98
2023-02-26T17:45:30.105Z,634.96
2023-02-26T17:50:29.906Z,637.36
2023-02-26T17:55:29.891Z,629.62
2023-02-26T18:00:29.833Z,633.76
2023-02-26T18:05:29.739Z,629.62
2023-02-26T18:10:29.694Z,626.70
2023-02-26T18:15:29.641Z,622.07
2023-02-26T18:20:29.902Z,628.45
2023-02-26T18:25:29.513Z,626.70
2023-02-26T18:30:29.562Z,629.62
2023-02-26T18:35:29.399Z,634.36
2023-02-26T18:40:29.455Z,635.56
2023-02-26T18:45:29.278Z,638.57
2023-02-26T18:50:29.179Z,634.36
2023-02-26T18:55:29.156Z,634.96
2023-02-26T19:00:29.757Z,637.36
2023-02-26T19:05:29.006Z,635.56
2023-02-26T19:10:28.965Z,631.39
2023-02-26T19:15:28.959Z,631.39
2023-02-26T19:20:28.926Z,630.21
2023-02-26T19:25:28.768Z,631.98
2023-02-26T19:30:28.744Z,630.21
2023-02-26T19:35:28.611Z,629.62
2023-02-26T19:40:28.570Z,625.53
2023-02-26T19:45:28.514Z,625.53
2023-02-26T19:50:28.443Z,630.21
2023-02-26T19:55:28.348Z,628.45
2023-02-26T20:00:28.344Z,622.65
2023-02-26T20:05:28.230Z,625.53
2023-02-26T20:10:28.234Z,629.03
2023-02-26T20:15:28.132Z,626.70
2023-02-26T20:20:28.123Z,628.45
2023-02-26T20:25:28.009Z,633.17
2023-02-26T20:30:27.938Z,633.17
2023-02-26T20:35:27.849Z,636.76
2023-02-26T20:40:27.776Z,639.78
2023-02-26T20:45:27.713Z,634.96
2023-02-26T20:50:27.665Z,634.96
2023-02-26T20:55:27.582Z,636.16
2023-02-26T21:00:27.645Z,641.60
2023-02-26T21:05:27.468Z,639.78
2023-02-26T21:10:27.408Z,644.05
2023-02-26T21:15:27.351Z,649.01
2023-02-26T21:20:27.290Z,645.29
2023-02-26T21:25:27.238Z,640.39
2023-02-26T21:30:27.220Z,644.05
2023-02-26T21:35:27.107Z,653.42
2023-02-26T21:40:27.050Z,656.60
2023-02-26T21:45:26.983Z,659.16
2023-02-26T21:50:26.957Z,654.05
2023-02-26T21:55:26.818Z,659.81
2023-02-26T22:00:26.756Z,657.88
2023-02-26T22:05:26.770Z,666.33
2023-02-26T22:10:26.660Z,668.31
2023-02-26T22:15:26.571Z,666.33
2023-02-26T22:20:26.511Z,663.05
2023-02-26T22:25:26.483Z,661.10
2023-02-26T22:30:26.421Z,662.40
2023-02-26T22:35:26.315Z,669.64
2023-02-26T22:40:26.265Z,663.05
2023-02-26T22:45:26.223Z,666.99
2023-02-26T22:50:26.117Z,677.71
2023-02-26T22:55:26.091Z,672.31
2023-02-26T23:00:26.013Z,676.35
2023-02-26T23:05:25.964Z,672.31
2023-02-26T23:10:25.942Z,670.97
2023-02-26T23:15:26.021Z,670.30
2023-02-26T23:20:25.764Z,680.45
2023-02-26T23:25:25.701Z,681.14
2023-02-26T23:30:25.628Z,693.75
2023-02-26T23:35:25.567Z,691.62
2023-02-26T23:40:26.173Z,709.07
2023-02-26T23:45:25.446Z,721.20
2023-02-26T23:50:25.376Z,729.00
2023-02-26T23:55:25.301Z,731.37
